sensor_id;sensor_type;location;lat;lon;timestamp;pressure;altitude;pressure_sealevel;temperature;humidity
12879;BME280;20617;49.476;10.986;2023-02-19T00:00:39;98653.88;;;10.05;100.00
12879;BME280;20617;49.476;10.986;2023-02-19T00:02:47;98657.50;;;10.01;100.00
12879;BME280;20617;49.476;10.986;2023-02-19T00:04:55;98651.63;;;9.94;100.00
12879;BME280;20617;49.476;10.986;2023-02-19T00:07:00;98657.00;;;9.90;100.00
12879;BME280;20617;49.476;10.986;2023-02-19T00:09:05;98648.59;;;9.82;100.00
12879;BME280;20617;49.476;10.986;2023-02-19T00:11:11;98657.31;;;9.81;100.00
12879;BME280;20617;49.476;10.986;2023-02-19T00:13:18;98659.81;;;9.84;100.00
12879;BME280;20617;49.476;10.986;2023-02-19T00:15:23;98668.34;;;9.87;100.00
12879;BME280;20617;49.476;10.986;2023-02-19T00:17:29;98666.59;;;9.88;100.00
12879;BME280;20617;49.476;10.986;2023-02-19T00:19:37;98662.00;;;9.96;100.00
12879;BME280;20617;49.476;10.986;2023-02-19T00:21:42;98653.50;;;9.91;100.00
12879;BME280;20617;49.476;10.986;2023-02-19T00:23:48;98650.53;;;10.02;100.00
12879;BME280;20617;49.476;10.986;2023-02-19T00:25:55;98654.78;;;10.04;100.00
12879;BME280;20617;49.476;10.986;2023-02-19T00:28:19;98653.88;;;10.05;100.00
12879;BME280;20617;49.476;10.986;2023-02-19T00:30:24;98662.00;;;9.96;100.00
12879;BME280;20617;49.476;10.986;2023-02-19T00:32:28;98664.63;;;9.94;100.00
12879;BME280;20617;49.476;10.986;2023-02-19T00:34:37;98661.63;;;9.80;100.00
12879;BME280;20617;49.476;10.986;2023-02-19T00:36:42;98663.28;;;9.83;100.00
12879;BME280;20617;49.476;10.986;2023-02-19T00:38:47;98668.69;;;9.77;100.00
12879;BME280;20617;49.476;10.986;2023-02-19T00:40:52;98658.19;;;9.80;100.00
12879;BME280;20617;49.476;10.986;2023-02-19T00:42:57;98663.28;;;9.83;100.00
12879;BME280;20617;49.476;10.986;2023-02-19T00:45:02;98660.88;;;9.77;100.00
12879;BME280;20617;49.476;10.986;2023-02-19T00:47:07;98663.59;;;9.73;100.00
12879;BME280;20617;49.476;10.986;2023-02-19T00:49:16;98654.09;;;9.72;100.00
12879;BME280;20617;49.476;10.986;2023-02-19T00:51:25;98659.03;;;9.80;100.00
12879;BME280;20617;49.476;10.986;2023-02-19T00:53:30;98651.91;;;9.60;100.00
12879;BME280;20617;49.476;10.986;2023-02-19T00:55:35;98659.50;;;9.66;100.00
12879;BME280;20617;49.476;10.986;2023-02-19T00:57:40;98650.88;;;9.64;100.00
12879;BME280;20617;49.476;10.986;2023-02-19T00:59:45;98649.00;;;9.69;100.00
12879;BME280;20617;49.476;10.986;2023-02-19T01:01:50;98640.91;;;9.79;100.00
12879;BME280;20617;49.476;10.986;2023-02-19T01:03:57;98636.34;;;9.85;100.00
12879;BME280;20617;49.476;10.986;2023-02-19T01:06:02;98637.16;;;9.87;100.00
12879;BME280;20617;49.476;10.986;2023-02-19T01:08:10;98633.53;;;9.91;100.00
12879;BME280;20617;49.476;10.986;2023-02-19T01:10:15;98626.50;;;9.95;100.00
12879;BME280;20617;49.476;10.986;2023-02-19T01:12:20;98623.41;;;9.84;100.00
12879;BME280;20617;49.476;10.986;2023-02-19T01:14:26;98617.59;;;9.75;100.00
12879;BME280;20617;49.476;10.986;2023-02-19T01:16:31;98628.25;;;9.68;100.00
12879;BME280;20617;49.476;10.986;2023-02-19T01:18:36;98622.16;;;9.69;100.00
12879;BME280;20617;49.476;10.986;2023-02-19T01:20:42;98623.13;;;9.65;100.00
12879;BME280;20617;49.476;10.986;2023-02-19T01:22:48;98627.50;;;9.64;100.00
12879;BME280;20617;49.476;10.986;2023-02-19T01:24:55;98625.09;;;9.58;100.00
12879;BME280;20617;49.476;10.986;2023-02-19T01:27:00;98637.47;;;9.50;100.00
12879;BME280;20617;49.476;10.986;2023-02-19T01:29:05;98625.53;;;9.44;100.00
12879;BME280;20617;49.476;10.986;2023-02-19T01:31:12;98617.44;;;9.53;100.00
12879;BME280;20617;49.476;10.986;2023-02-19T01:33:18;98613.78;;;9.59;100.00
12879;BME280;20617;49.476;10.986;2023-02-19T01:35:23;98606.84;;;9.60;100.00
12879;BME280;20617;49.476;10.986;2023-02-19T01:37:28;98606.19;;;9.53;100.00
12879;BME280;20617;49.476;10.986;2023-02-19T01:39:33;98594.81;;;9.57;100.00
12879;BME280;20617;49.476;10.986;2023-02-19T01:41:40;98596.53;;;9.57;100.00
12879;BME280;20617;49.476;10.986;2023-02-19T01:43:57;98595.69;;;9.56;100.00
12879;BME280;20617;49.476;10.986;2023-02-19T01:46:02;98592.31;;;9.54;100.00
12879;BME280;20617;49.476;10.986;2023-02-19T01:48:10;98593.38;;;9.48;100.00
12879;BME280;20617;49.476;10.986;2023-02-19T01:50:16;98592.59;;;9.45;100.00
12879;BME280;20617;49.476;10.986;2023-02-19T01:52:24;98590.81;;;9.47;100.00
12879;BME280;20617;49.476;10.986;2023-02-19T01:54:31;98570.75;;;9.50;100.00
12879;BME280;20617;49.476;10.986;2023-02-19T01:56:42;98575.22;;;9.47;100.00
12879;BME280;20617;49.476;10.986;2023-02-19T01:58:49;98579.91;;;9.36;100.00
12879;BME280;20617;49.476;10.986;2023-02-19T02:00:55;98579.88;;;9.37;100.00
12879;BME280;20617;49.476;10.986;2023-02-19T02:03:00;98583.41;;;9.35;100.00
12879;BME280;20617;49.476;10.986;2023-02-19T02:05:08;98581.00;;;9.28;100.00
12879;BME280;20617;49.476;10.986;2023-02-19T02:07:16;98581.78;;;9.30;100.00
12879;BME280;20617;49.476;10.986;2023-02-19T02:09:33;98595.81;;;9.25;100.00
12879;BME280;20617;49.476;10.986;2023-02-19T02:11:53;98584.69;;;9.21;100.00
12879;BME280;20617;49.476;10.986;2023-02-19T02:13:58;98594.00;;;9.28;100.00
12879;BME280;20617;49.476;10.986;2023-02-19T02:16:15;98601.06;;;9.23;100.00
12879;BME280;20617;49.476;10.986;2023-02-19T02:18:27;98583.81;;;9.22;100.00
12879;BME280;20617;49.476;10.986;2023-02-19T02:20:44;98577.69;;;9.23;100.00
12879;BME280;20617;49.476;10.986;2023-02-19T02:22:58;98583.69;;;9.25;100.00
12879;BME280;20617;49.476;10.986;2023-02-19T02:25:31;98568.03;;;9.28;100.00
12879;BME280;20617;49.476;10.986;2023-02-19T02:27:50;98563.75;;;9.26;100.00
12879;BME280;20617;49.476;10.986;2023-02-19T02:30:15;98562.16;;;9.22;100.00
12879;BME280;20617;49.476;10.986;2023-02-19T02:32:26;98566.47;;;9.23;100.00
12879;BME280;20617;49.476;10.986;2023-02-19T02:34:40;98568.34;;;9.18;100.00
12879;BME280;20617;49.476;10.986;2023-02-19T02:36:53;98558.59;;;9.24;100.00
12879;BME280;20617;49.476;10.986;2023-02-19T02:38:59;98560.31;;;9.25;100.00
12879;BME280;20617;49.476;10.986;2023-02-19T02:41:10;98563.66;;;9.29;100.00
12879;BME280;20617;49.476;10.986;2023-02-19T02:43:16;98562.13;;;9.23;100.00
12879;BME280;20617;49.476;10.986;2023-02-19T02:45:29;98561.06;;;9.29;100.00
12879;BME280;20617;49.476;10.986;2023-02-19T02:47:49;98551.59;;;9.28;100.00
12879;BME280;20617;49.476;10.986;2023-02-19T02:49:56;98558.41;;;9.30;100.00
12879;BME280;20617;49.476;10.986;2023-02-19T02:52:08;98546.09;;;9.37;100.00
12879;BME280;20617;49.476;10.986;2023-02-19T02:54:38;98536.44;;;9.41;100.00
12879;BME280;20617;49.476;10.986;2023-02-19T02:56:57;98543.22;;;9.45;100.00
12879;BME280;20617;49.476;10.986;2023-02-19T02:59:12;98534.69;;;9.41;100.00
12879;BME280;20617;49.476;10.986;2023-02-19T03:01:23;98527.06;;;9.37;100.00
12879;BME280;20617;49.476;10.986;2023-02-19T03:03:43;98519.84;;;9.45;100.00
12879;BME280;20617;49.476;10.986;2023-02-19T03:05:52;98527.63;;;9.45;100.00
12879;BME280;20617;49.476;10.986;2023-02-19T03:07:59;98535.59;;;9.40;100.00
12879;BME280;20617;49.476;10.986;2023-02-19T03:10:11;98523.34;;;9.44;100.00
12879;BME280;20617;49.476;10.986;2023-02-19T03:12:17;98510.88;;;9.53;100.00
12879;BME280;20617;49.476;10.986;2023-02-19T03:14:39;98521.06;;;9.60;100.00
12879;BME280;20617;49.476;10.986;2023-02-19T03:17:06;98518.69;;;9.53;100.00
12879;BME280;20617;49.476;10.986;2023-02-19T03:19:26;98522.16;;;9.54;100.00
12879;BME280;20617;49.476;10.986;2023-02-19T03:21:33;98517.00;;;9.52;100.00
12879;BME280;20617;49.476;10.986;2023-02-19T03:23:42;98506.84;;;9.45;100.00
12879;BME280;20617;49.476;10.986;2023-02-19T03:26:01;98515.06;;;9.33;100.00
12879;BME280;20617;49.476;10.986;2023-02-19T03:28:21;98528.25;;;9.26;100.00
12879;BME280;20617;49.476;10.986;2023-02-19T03:30:51;98532.50;;;9.29;100.00
12879;BME280;20617;49.476;10.986;2023-02-19T03:33:02;98524.16;;;9.19;100.00
12879;BME280;20617;49.476;10.986;2023-02-19T03:35:13;98516.09;;;9.27;100.00
12879;BME280;20617;49.476;10.986;2023-02-19T03:37:24;98518.75;;;9.25;100.00
12879;BME280;20617;49.476;10.986;2023-02-19T03:39:33;98516.94;;;9.27;100.00
12879;BME280;20617;49.476;10.986;2023-02-19T03:41:54;98521.91;;;9.35;100.00
12879;BME280;20617;49.476;10.986;2023-02-19T03:44:07;98511.41;;;9.38;100.00
12879;BME280;20617;49.476;10.986;2023-02-19T03:46:16;98508.00;;;9.36;100.00
12879;BME280;20617;49.476;10.986;2023-02-19T03:48:32;98504.66;;;9.33;100.00
12879;BME280;20617;49.476;10.986;2023-02-19T03:50:46;98500.31;;;9.33;100.00
12879;BME280;20617;49.476;10.986;2023-02-19T03:53:02;98506.56;;;9.27;100.00
12879;BME280;20617;49.476;10.986;2023-02-19T03:55:11;98497.03;;;9.28;100.00
12879;BME280;20617;49.476;10.986;2023-02-19T03:57:25;98492.72;;;9.27;100.00
12879;BME280;20617;49.476;10.986;2023-02-19T03:59:38;98503.19;;;9.25;100.00
12879;BME280;20617;49.476;10.986;2023-02-19T04:01:51;98491.16;;;9.21;100.00
12879;BME280;20617;49.476;10.986;2023-02-19T04:04:05;98494.69;;;9.20;100.00
12879;BME280;20617;49.476;10.986;2023-02-19T04:06:15;98503.38;;;9.19;100.00
12879;BME280;20617;49.476;10.986;2023-02-19T04:08:23;98513.94;;;9.13;100.00
12879;BME280;20617;49.476;10.986;2023-02-19T04:10:37;98517.53;;;9.09;100.00
12879;BME280;20617;49.476;10.986;2023-02-19T04:12:46;98521.91;;;9.09;100.00
12879;BME280;20617;49.476;10.986;2023-02-19T04:14:56;98514.13;;;9.07;100.00
12879;BME280;20617;49.476;10.986;2023-02-19T04:17:04;98509.56;;;9.15;100.00
12879;BME280;20617;49.476;10.986;2023-02-19T04:19:15;98533.00;;;9.14;100.00
12879;BME280;20617;49.476;10.986;2023-02-19T04:21:22;98531.16;;;9.17;100.00
12879;BME280;20617;49.476;10.986;2023-02-19T04:23:29;98534.59;;;9.18;100.00
12879;BME280;20617;49.476;10.986;2023-02-19T04:25:38;98535.50;;;9.17;100.00
12879;BME280;20617;49.476;10.986;2023-02-19T04:27:45;98525.13;;;9.15;100.00
12879;BME280;20617;49.476;10.986;2023-02-19T04:29:51;98518.56;;;9.05;100.00
12879;BME280;20617;49.476;10.986;2023-02-19T04:31:55;98513.50;;;9.00;100.00
12879;BME280;20617;49.476;10.986;2023-02-19T04:34:00;98527.94;;;9.09;100.00
12879;BME280;20617;49.476;10.986;2023-02-19T04:36:09;98526.09;;;9.13;100.00
12879;BME280;20617;49.476;10.986;2023-02-19T04:38:14;98520.25;;;9.06;100.00
12879;BME280;20617;49.476;10.986;2023-02-19T04:40:19;98510.75;;;9.05;100.00
12879;BME280;20617;49.476;10.986;2023-02-19T04:42:24;98515.75;;;9.11;100.00
12879;BME280;20617;49.476;10.986;2023-02-19T04:44:32;98503.81;;;9.05;100.00
12879;BME280;20617;49.476;10.986;2023-02-19T04:46:38;98514.13;;;9.07;100.00
12879;BME280;20617;49.476;10.986;2023-02-19T04:48:43;98528.13;;;9.03;100.00
12879;BME280;20617;49.476;10.986;2023-02-19T04:50:48;98529.03;;;9.02;100.00
12879;BME280;20617;49.476;10.986;2023-02-19T04:52:57;98533.63;;;8.94;100.00
12879;BME280;20617;49.476;10.986;2023-02-19T04:55:02;98536.06;;;8.98;100.00
12879;BME280;20617;49.476;10.986;2023-02-19T04:57:07;98550.75;;;8.99;100.00
12879;BME280;20617;49.476;10.986;2023-02-19T04:59:12;98534.56;;;8.91;100.00
12879;BME280;20617;49.476;10.986;2023-02-19T05:01:17;98536.34;;;8.89;100.00
12879;BME280;20617;49.476;10.986;2023-02-19T05:03:22;98534.75;;;8.85;100.00
12879;BME280;20617;49.476;10.986;2023-02-19T05:05:26;98525.22;;;8.86;100.00
12879;BME280;20617;49.476;10.986;2023-02-19T05:07:32;98532.72;;;8.95;100.00
12879;BME280;20617;49.476;10.986;2023-02-19T05:09:39;98529.16;;;8.97;100.00
12879;BME280;20617;49.476;10.986;2023-02-19T05:11:44;98530.91;;;8.97;100.00
12879;BME280;20617;49.476;10.986;2023-02-19T05:13:49;98525.13;;;8.89;100.00
12879;BME280;20617;49.476;10.986;2023-02-19T05:15:56;98536.34;;;8.89;100.00
12879;BME280;20617;49.476;10.986;2023-02-19T05:18:01;98518.78;;;8.97;100.00
12879;BME280;20617;49.476;10.986;2023-02-19T05:20:07;98518.78;;;8.97;100.00
12879;BME280;20617;49.476;10.986;2023-02-19T05:22:12;98505.84;;;8.96;100.00
12879;BME280;20617;49.476;10.986;2023-02-19T05:24:17;98515.25;;;9.00;100.00
12879;BME280;20617;49.476;10.986;2023-02-19T05:26:25;98516.00;;;9.03;100.00
12879;BME280;20617;49.476;10.986;2023-02-19T05:28:31;98500.47;;;9.02;100.00
12879;BME280;20617;49.476;10.986;2023-02-19T05:30:36;98500.38;;;9.05;100.00
12879;BME280;20617;49.476;10.986;2023-02-19T05:32:41;98501.13;;;9.09;100.00
12879;BME280;20617;49.476;10.986;2023-02-19T05:34:46;98519.09;;;9.15;100.00
12879;BME280;20617;49.476;10.986;2023-02-19T05:36:51;98503.66;;;9.10;100.00
12879;BME280;20617;49.476;10.986;2023-02-19T05:38:56;98506.06;;;9.16;100.00
12879;BME280;20617;49.476;10.986;2023-02-19T05:41:09;98510.47;;;9.14;100.00
12879;BME280;20617;49.476;10.986;2023-02-19T05:43:16;98508.00;;;9.10;100.00
12879;BME280;20617;49.476;10.986;2023-02-19T05:45:21;98509.63;;;9.14;100.00
12879;BME280;20617;49.476;10.986;2023-02-19T05:47:26;98511.41;;;9.12;100.00
12879;BME280;20617;49.476;10.986;2023-02-19T05:49:31;98517.34;;;9.15;100.00
12879;BME280;20617;49.476;10.986;2023-02-19T05:51:36;98526.16;;;9.11;100.00
12879;BME280;20617;49.476;10.986;2023-02-19T05:53:42;98525.97;;;9.16;100.00
12879;BME280;20617;49.476;10.986;2023-02-19T05:55:47;98531.94;;;9.19;100.00
12879;BME280;20617;49.476;10.986;2023-02-19T05:57:51;98534.72;;;9.13;100.00
12879;BME280;20617;49.476;10.986;2023-02-19T05:59:59;98527.13;;;9.07;100.00
12879;BME280;20617;49.476;10.986;2023-02-19T06:02:12;98527.22;;;9.04;100.00
12879;BME280;20617;49.476;10.986;2023-02-19T06:04:18;98540.28;;;9.02;100.00
12879;BME280;20617;49.476;10.986;2023-02-19T06:06:23;98545.38;;;9.05;100.00
12879;BME280;20617;49.476;10.986;2023-02-19T06:08:28;98547.22;;;9.02;100.00
12879;BME280;20617;49.476;10.986;2023-02-19T06:10:33;98554.22;;;8.98;100.00
12879;BME280;20617;49.476;10.986;2023-02-19T06:12:39;98554.28;;;8.97;100.00
12879;BME280;20617;49.476;10.986;2023-02-19T06:14:44;98560.13;;;9.03;100.00
12879;BME280;20617;49.476;10.986;2023-02-19T06:16:51;98565.28;;;9.05;100.00
12879;BME280;20617;49.476;10.986;2023-02-19T06:18:56;98560.53;;;9.19;100.00
12879;BME280;20617;49.476;10.986;2023-02-19T06:21:01;98559.81;;;9.14;100.00
12879;BME280;20617;49.476;10.986;2023-02-19T06:23:06;98557.06;;;9.19;100.00
12879;BME280;20617;49.476;10.986;2023-02-19T06:25:11;98563.53;;;9.05;100.00
12879;BME280;20617;49.476;10.986;2023-02-19T06:27:16;98563.47;;;9.07;100.00
12879;BME280;20617;49.476;10.986;2023-02-19T06:29:21;98556.31;;;9.15;100.00
12879;BME280;20617;49.476;10.986;2023-02-19T06:31:25;98564.16;;;9.14;100.00
12879;BME280;20617;49.476;10.986;2023-02-19T06:33:33;98561.50;;;9.15;100.00
12879;BME280;20617;49.476;10.986;2023-02-19T06:35:39;98558.09;;;9.13;100.00
12879;BME280;20617;49.476;10.986;2023-02-19T06:37:45;98565.03;;;9.13;100.00
12879;BME280;20617;49.476;10.986;2023-02-19T06:39:50;98566.84;;;9.11;100.00
12879;BME280;20617;49.476;10.986;2023-02-19T06:41:56;98569.34;;;9.14;100.00
12879;BME280;20617;49.476;10.986;2023-02-19T06:44:01;98571.78;;;9.18;100.00
12879;BME280;20617;49.476;10.986;2023-02-19T06:46:06;98571.69;;;9.21;100.00
12879;BME280;20617;49.476;10.986;2023-02-19T06:48:11;98574.38;;;9.18;100.00
12879;BME280;20617;49.476;10.986;2023-02-19T06:50:19;98576.84;;;9.23;100.00
12879;BME280;20617;49.476;10.986;2023-02-19T06:52:24;98584.88;;;9.15;100.00
12879;BME280;20617;49.476;10.986;2023-02-19T06:54:29;98581.25;;;9.21;100.00
12879;BME280;20617;49.476;10.986;2023-02-19T06:56:36;98588.00;;;9.26;100.00
12879;BME280;20617;49.476;10.986;2023-02-19T06:58:41;98587.97;;;9.28;100.00
12879;BME280;20617;49.476;10.986;2023-02-19T07:00:45;98589.69;;;9.27;100.00
12879;BME280;20617;49.476;10.986;2023-02-19T07:02:50;98595.97;;;9.20;100.00
12879;BME280;20617;49.476;10.986;2023-02-19T07:04:57;98590.81;;;9.19;100.00
12879;BME280;20617;49.476;10.986;2023-02-19T07:07:04;98583.19;;;9.14;100.00
12879;BME280;20617;49.476;10.986;2023-02-19T07:09:10;98597.22;;;9.09;100.00
12879;BME280;20617;49.476;10.986;2023-02-19T07:11:15;98601.47;;;9.11;100.00
12879;BME280;20617;49.476;10.986;2023-02-19T07:13:20;98603.06;;;9.15;100.00
12879;BME280;20617;49.476;10.986;2023-02-19T07:15:25;98598.03;;;9.11;100.00
12879;BME280;20617;49.476;10.986;2023-02-19T07:17:30;98604.81;;;9.15;100.00
12879;BME280;20617;49.476;10.986;2023-02-19T07:19:35;98596.78;;;9.22;100.00
12879;BME280;20617;49.476;10.986;2023-02-19T07:21:40;98591.69;;;9.19;100.00
12879;BME280;20617;49.476;10.986;2023-02-19T07:23:48;98602.03;;;9.21;100.00
12879;BME280;20617;49.476;10.986;2023-02-19T07:25:53;98604.59;;;9.22;100.00
12879;BME280;20617;49.476;10.986;2023-02-19T07:27:58;98608.91;;;9.22;100.00
12879;BME280;20617;49.476;10.986;2023-02-19T07:30:04;98602.03;;;9.21;100.00
12879;BME280;20617;49.476;10.986;2023-02-19T07:32:09;98613.25;;;9.21;100.00
12879;BME280;20617;49.476;10.986;2023-02-19T07:34:13;98618.44;;;9.21;100.00
12879;BME280;20617;49.476;10.986;2023-02-19T07:36:20;98599.31;;;9.24;100.00
12879;BME280;20617;49.476;10.986;2023-02-19T07:38:25;98605.16;;;9.30;100.00
12879;BME280;20617;49.476;10.986;2023-02-19T07:40:33;98612.09;;;9.32;100.00
12879;BME280;20617;49.476;10.986;2023-02-19T07:42:38;98617.28;;;9.32;100.00
12879;BME280;20617;49.476;10.986;2023-02-19T07:44:43;98612.28;;;9.25;100.00
12879;BME280;20617;49.476;10.986;2023-02-19T07:46:48;98624.16;;;9.33;100.00
12879;BME280;20617;49.476;10.986;2023-02-19T07:48:53;98617.28;;;9.32;100.00
12879;BME280;20617;49.476;10.986;2023-02-19T07:50:58;98615.56;;;9.30;100.00
12879;BME280;20617;49.476;10.986;2023-02-19T07:53:03;98612.00;;;9.35;100.00
12879;BME280;20617;49.476;10.986;2023-02-19T07:55:08;98612.88;;;9.34;100.00
12879;BME280;20617;49.476;10.986;2023-02-19T07:57:16;98605.69;;;9.42;100.00
12879;BME280;20617;49.476;10.986;2023-02-19T07:59:20;98606.63;;;9.39;100.00
12879;BME280;20617;49.476;10.986;2023-02-19T08:01:25;98615.22;;;9.41;100.00
12879;BME280;20617;49.476;10.986;2023-02-19T08:03:43;98623.69;;;9.48;100.00
12879;BME280;20617;49.476;10.986;2023-02-19T08:05:51;98617.59;;;9.49;100.00
12879;BME280;20617;49.476;10.986;2023-02-19T08:07:56;98623.41;;;9.57;100.00
12879;BME280;20617;49.476;10.986;2023-02-19T08:10:02;98621.69;;;9.56;100.00
12879;BME280;20617;49.476;10.986;2023-02-19T08:12:23;98620.00;;;9.55;100.00
12879;BME280;20617;49.476;10.986;2023-02-19T08:14:40;98631.25;;;9.56;100.00
12879;BME280;20617;49.476;10.986;2023-02-19T08:16:48;98620.81;;;9.57;100.00
12879;BME280;20617;49.476;10.986;2023-02-19T08:18:54;98622.41;;;9.61;100.00
12879;BME280;20617;49.476;10.986;2023-02-19T08:21:02;98627.50;;;9.64;100.00
12879;BME280;20617;49.476;10.986;2023-02-19T08:23:07;98618.59;;;9.71;100.00
12879;BME280;20617;49.476;10.986;2023-02-19T08:25:15;98623.78;;;9.71;100.00
12879;BME280;20617;49.476;10.986;2023-02-19T08:27:19;98631.34;;;9.79;100.00
12879;BME280;20617;49.476;10.986;2023-02-19T08:29:27;98629.34;;;9.87;100.00
12879;BME280;20617;49.476;10.986;2023-02-19T08:31:32;98646.13;;;9.77;100.00
12879;BME280;20617;49.476;10.986;2023-02-19T08:33:38;98645.28;;;9.77;100.00
12879;BME280;20617;49.476;10.986;2023-02-19T08:35:44;98643.81;;;9.69;100.00
12879;BME280;20617;49.476;10.986;2023-02-19T08:37:54;98653.06;;;9.78;100.00
12879;BME280;20617;49.476;10.986;2023-02-19T08:39:59;98657.50;;;9.74;100.00
12879;BME280;20617;49.476;10.986;2023-02-19T08:42:04;98657.44;;;9.76;100.00
12879;BME280;20617;49.476;10.986;2023-02-19T08:44:08;98663.44;;;9.78;100.00
12879;BME280;20617;49.476;10.986;2023-02-19T08:46:16;98666.28;;;9.70;100.00
12879;BME280;20617;49.476;10.986;2023-02-19T08:48:21;98662.88;;;9.68;100.00
12879;BME280;20617;49.476;10.986;2023-02-19T08:50:26;98666.38;;;9.67;100.00
12879;BME280;20617;49.476;10.986;2023-02-19T08:52:31;98686.97;;;9.73;100.00
12879;BME280;20617;49.476;10.986;2023-02-19T08:54:36;98684.34;;;9.75;100.00
12879;BME280;20617;49.476;10.986;2023-02-19T08:56:40;98676.44;;;9.78;100.00
12879;BME280;20617;49.476;10.986;2023-02-19T08:58:45;98680.53;;;9.85;100.00
12879;BME280;20617;49.476;10.986;2023-02-19T09:00:50;98680.59;;;9.84;100.00
12879;BME280;20617;49.476;10.986;2023-02-19T09:03:00;98677.44;;;9.74;100.00
12879;BME280;20617;49.476;10.986;2023-02-19T09:05:06;98674.63;;;9.80;100.00
12879;BME280;20617;49.476;10.986;2023-02-19T09:07:11;98677.00;;;9.88;100.00
12879;BME280;20617;49.476;10.986;2023-02-19T09:09:16;98683.72;;;9.95;100.00
12879;BME280;20617;49.476;10.986;2023-02-19T09:11:21;98674.09;;;9.97;100.00
12879;BME280;20617;49.476;10.986;2023-02-19T09:13:26;98693.41;;;9.90;100.00
12879;BME280;20617;49.476;10.986;2023-02-19T09:15:31;98689.91;;;9.91;100.00
12879;BME280;20617;49.476;10.986;2023-02-19T09:17:36;98714.00;;;9.96;100.00
12879;BME280;20617;49.476;10.986;2023-02-19T09:19:43;98701.81;;;9.98;100.00
12879;BME280;20617;49.476;10.986;2023-02-19T09:21:51;98705.91;;;10.05;100.00
12879;BME280;20617;49.476;10.986;2023-02-19T09:23:56;98700.88;;;10.01;100.00
12879;BME280;20617;49.476;10.986;2023-02-19T09:26:02;98704.88;;;10.09;100.00
12879;BME280;20617;49.476;10.986;2023-02-19T09:28:10;98715.25;;;10.11;100.00
12879;BME280;20617;49.476;10.986;2023-02-19T09:30:14;98709.50;;;10.01;100.00
12879;BME280;20617;49.476;10.986;2023-02-19T09:32:20;98713.09;;;9.97;100.00
12879;BME280;20617;49.476;10.986;2023-02-19T09:34:26;98713.88;;;10.01;100.00
12879;BME280;20617;49.476;10.986;2023-02-19T09:36:33;98721.72;;;9.99;100.00
12879;BME280;20617;49.476;10.986;2023-02-19T09:38:39;98729.09;;;10.11;100.00
12879;BME280;20617;49.476;10.986;2023-02-19T09:40:44;98720.69;;;10.31;100.00
12879;BME280;20617;49.476;10.986;2023-02-19T09:42:49;98719.53;;;10.40;100.00
12879;BME280;20617;49.476;10.986;2023-02-19T09:44:58;98722.03;;;10.43;100.00
12879;BME280;20617;49.476;10.986;2023-02-19T09:47:07;98725.78;;;10.34;100.00
12879;BME280;20617;49.476;10.986;2023-02-19T09:49:19;98716.38;;;10.30;100.00
12879;BME280;20617;49.476;10.986;2023-02-19T09:51:27;98725.75;;;10.36;100.00
12879;BME280;20617;49.476;10.986;2023-02-19T09:53:40;98739.72;;;10.33;100.00
12879;BME280;20617;49.476;10.986;2023-02-19T09:55:46;98719.28;;;10.21;100.00
12879;BME280;20617;49.476;10.986;2023-02-19T09:57:51;98734.78;;;10.24;100.00
12879;BME280;20617;49.476;10.986;2023-02-19T10:00:02;98733.88;;;10.25;100.00
12879;BME280;20617;49.476;10.986;2023-02-19T10:02:13;98739.03;;;10.27;100.00
12879;BME280;20617;49.476;10.986;2023-02-19T10:04:19;98740.88;;;10.23;100.00
12879;BME280;20617;49.476;10.986;2023-02-19T10:06:26;98746.13;;;10.22;100.00
12879;BME280;20617;49.476;10.986;2023-02-19T10:08:35;98746.34;;;10.15;100.00
12879;BME280;20617;49.476;10.986;2023-02-19T10:10:42;98734.28;;;10.13;100.00
12879;BME280;20617;49.476;10.986;2023-02-19T10:12:50;98742.28;;;10.07;100.00
12879;BME280;20617;49.476;10.986;2023-02-19T10:15:03;98739.00;;;10.28;100.00
12879;BME280;20617;49.476;10.986;2023-02-19T10:17:18;98749.28;;;10.33;100.00
12879;BME280;20617;49.476;10.986;2023-02-19T10:19:26;98744.84;;;10.35;100.00
12879;BME280;20617;49.476;10.986;2023-02-19T10:21:30;98745.06;;;10.29;100.00
12879;BME280;20617;49.476;10.986;2023-02-19T10:23:38;98751.16;;;10.28;100.00
12879;BME280;20617;49.476;10.986;2023-02-19T10:25:47;98752.09;;;10.25;100.00
12879;BME280;20617;49.476;10.986;2023-02-19T10:27:53;98750.44;;;10.23;100.00
12879;BME280;20617;49.476;10.986;2023-02-19T10:29:58;98760.03;;;10.20;100.00
12879;BME280;20617;49.476;10.986;2023-02-19T10:32:14;98748.78;;;10.20;100.00
12879;BME280;20617;49.476;10.986;2023-02-19T10:34:23;98754.91;;;10.17;100.00
12879;BME280;20617;49.476;10.986;2023-02-19T10:36:31;98744.81;;;10.36;100.00
12879;BME280;20617;49.476;10.986;2023-02-19T10:38:44;98749.38;;;10.30;100.00
12879;BME280;20617;49.476;10.986;2023-02-19T10:40:58;98736.19;;;10.34;100.00
12879;BME280;20617;49.476;10.986;2023-02-19T10:43:04;98749.84;;;10.41;100.00
12879;BME280;20617;49.476;10.986;2023-02-19T10:45:11;98748.97;;;10.42;100.00
12879;BME280;20617;49.476;10.986;2023-02-19T10:47:22;98762.38;;;10.30;100.00
12879;BME280;20617;49.476;10.986;2023-02-19T10:49:32;98773.53;;;10.33;100.00
12879;BME280;20617;49.476;10.986;2023-02-19T10:51:40;98765.94;;;10.27;100.00
12879;BME280;20617;49.476;10.986;2023-02-19T10:53:49;98769.88;;;10.39;100.00
12879;BME280;20617;49.476;10.986;2023-02-19T10:56:05;98761.22;;;10.38;100.00
12879;BME280;20617;49.476;10.986;2023-02-19T10:58:22;98766.50;;;10.35;100.00
12879;BME280;20617;49.476;10.986;2023-02-19T11:00:29;98771.25;;;10.23;100.00
12879;BME280;20617;49.476;10.986;2023-02-19T11:02:34;98767.94;;;10.17;100.00
12879;BME280;20617;49.476;10.986;2023-02-19T11:04:39;98772.25;;;10.18;100.00
12879;BME280;20617;49.476;10.986;2023-02-19T11:06:46;98772.44;;;10.12;100.00